• Join FlightAware (Why Join?)
  • Login
  • US Flag 
08:03AM EDT


 

Airport Tracker/Info


-or-


 

Live Flight TrackerFlight Track Log ✈ FFT920 ✈ 18-Jul-2013 ✈ KRDU - KTTN

Flight Track Log - Related Links

Times and Time Zones

All times are in EDT time to prevent confusion due to time zone crossing. See the FFT920 flight status page for this flight to view local times or setup timezone preferences in your user account.

Time Position Orientation Groundspeed Altitude Reporting Facility
EDT Latitude Longitude Course Direction KTS MPH feet Rate Location/Type
08:51AM 35.8664 -78.8139 252° West 171 197 1,200  Level Washington Center
08:52AM 35.8525 -78.8672 252° West 218 251 3,000 1,980 Climbing Washington Center
08:53AM 35.8767 -78.8989 313° West 257 296 4,500 2,640 Climbing Washington Center
08:54AM 35.9297 -78.9422 327° Northwest 255 293 7,200 2,760 Climbing Washington Center
08:55AM 35.9978 -78.8989 27° Northeast 223 257 10,200 2,400 Climbing Washington Center
08:56AM 36.0744 -78.8456 29° Northeast 244 281 12,200 2,100 Climbing Washington Center
08:57AM 36.1531 -78.7844 32° Northeast 295 339 14,500 2,520 Climbing Washington Center
08:58AM 36.2467 -78.7161 30° Northeast 337 388 17,200 2,100 Climbing Washington Center
08:59AM 36.3381 -78.6500 30° Northeast 357 411 18,800 1,680 Climbing Washington Center
09:00AM 36.4336 -78.5894 27° Northeast 373 429 20,700 1,920 Climbing Washington Center
09:01AM 36.5411 -78.5494 17° North 380 437 22,600 1,860 Climbing Washington Center
09:02AM 36.6506 -78.5122 15° North 396 456 24,400 1,800 Climbing Washington Center
09:03AM 36.7581 -78.4619 21° North 409 471 26,300 1,320 Climbing Washington Center
09:04AM 36.8581 -78.3850 32° Northeast 404 465 27,100 1,260 Climbing Washington Center
09:05AM 36.9536 -78.3028 35° Northeast 409 471 28,900 900 Climbing Washington Center
09:06AM 37.0492 -78.2256 33° Northeast 415 478 29,000  Climbing Washington Center
09:07AM 37.1428 -78.1506 33° Northeast 415 478 29,000 120 Level Washington Center
09:08AM 37.2403 -78.0728 32° Northeast 410 472 29,300 900 Climbing Washington Center
09:09AM 37.3336 -77.9922 34° Northeast 410 472 30,800 840 Climbing Washington Center
09:10AM 37.4314 -77.9117 33° Northeast 410 472 31,000 60 Climbing Washington Center
09:11AM 37.5289 -77.8308 33° Northeast 410 472 31,000  Level Washington Center
09:12AM 37.6264 -77.7419 36° Northeast 415 478 31,000  Level Washington Center
09:13AM 37.7217 -77.6528 37° Northeast 420 483 31,000  Level Washington Center
09:14AM 37.8192 -77.5661 35° Northeast 420 483 31,000  Level Washington Center
09:15AM 37.9144 -77.4789 36° Northeast 420 483 31,000  Level Washington Center
09:16AM 38.0097 -77.3917 36° Northeast 420 483 31,000  Level Washington Center
09:17AM 38.1025 -77.3042 37° Northeast 420 483 31,000  Level Washington Center
09:18AM 38.1978 -77.2192 35° Northeast 415 478 31,000  Level Washington Center
09:19AM 38.2947 -77.1261 37° Northeast 415 478 31,000  Level Washington Center
09:20AM 38.3897 -77.0406 35° Northeast 415 478 31,000 -960 Level Washington Center
09:21AM 38.4844 -76.9522 36° Northeast 415 478 29,100 -2,100 Descending Washington Center
09:22AM 38.5772 -76.8664 36° Northeast 415 478 26,900 -2,160 Descending Washington Center
09:23AM 38.6697 -76.7803 36° Northeast 415 478 24,800 -1,920 Descending Washington Center
09:24AM 38.7231 -76.6586 61° Northeast 396 456 23,100 -1,800 Descending Washington Center
09:25AM 38.7492 -76.5286 76° East 373 429 21,300 -1,800 Descending Washington Center
09:26AM 38.7750 -76.4011 75° East 373 429 19,600 -1,680 Descending Washington Center
09:27AM 38.8031 -76.2761 74° East 368 423 18,100 -1,320 Descending Washington Center
09:28AM 38.8203 -76.1806 77° East 355 409 17,000 -1,380 Descending Washington Center
09:29AM 38.8500 -76.0475 74° East 350 403 15,300 -1,080 Descending Washington Center
09:30AM 38.8733 -75.9275 76° East 344 396 14,900 -720 Descending Washington Center
09:31AM 38.9089 -75.8183 67° East 339 390 13,900 -1,020 Descending Washington Center
09:32AM 38.9944 -75.7811 19° North 297 342 12,900 -720 Descending Washington Center
09:34AM 39.1667 -75.7000 20° North 318 366 11,900 -360 Descending Philadelphia TRACON
09:35AM 39.2500 -75.6500 25° Northeast 324 373 12,000  Climbing Philadelphia TRACON
09:36AM 39.3167 -75.6000 30° Northeast 323 372 12,000  Level Philadelphia TRACON
09:37AM 39.4000 -75.5333 32° Northeast 323 372 12,000 -60 Level Philadelphia TRACON
09:38AM 39.4833 -75.4667 32° Northeast 323 372 11,900 -60 Descending Philadelphia TRACON
09:39AM 39.5667 -75.4167 25° Northeast 324 373 11,900 -120 Level Philadelphia TRACON
09:40AM 39.6333 -75.3500 38° Northeast 320 368 11,700 -720 Descending Philadelphia TRACON
09:41AM 39.7167 -75.3000 25° Northeast 294 338 10,500 -1,320 Descending Philadelphia TRACON
09:42AM 39.7667 -75.2500 38° Northeast 290 334 9,200 -960 Descending Philadelphia TRACON
09:43AM 39.8500 -75.1833 32° Northeast 294 338 8,600 -1,080 Descending Philadelphia TRACON
09:44AM 39.9167 -75.1333 30° Northeast 289 333 7,000 -1,560 Descending Philadelphia TRACON
09:45AM 39.9833 -75.0833 30° Northeast 283 326 5,500 -1,380 Descending Philadelphia TRACON
09:46AM 40.0500 -75.0333 30° Northeast 265 305 4,200 -1,260 Descending Philadelphia TRACON
09:47AM 40.1167 -74.9667 37° Northeast 267 307 2,900 -1,020 Descending Philadelphia TRACON
09:48AM 40.1667 -74.9333 27° Northeast 224 258 2,300 -780 Descending Philadelphia TRACON
09:49AM 40.2167 -74.9000 27° Northeast 207 238 1,400 -840 Descending Philadelphia TRACON
09:50AM 40.2500 -74.8500 49° Northeast 159 183 800 -780 Descending Philadelphia TRACON
09:52AM 40.2667 -74.8000 45° Northeast  Level FlightAware Approximate